createdAt,value
2022-10-13T00:00:57.541Z,76.6
2022-10-13T00:02:00.238Z,76.5
2022-10-13T00:03:03.685Z,76.8
2022-10-13T00:04:06.847Z,76.6
2022-10-13T00:05:09.712Z,76.6
2022-10-13T00:06:12.723Z,76.6
2022-10-13T00:07:15.505Z,76.7
2022-10-13T00:08:18.293Z,76.6
2022-10-13T00:09:21.861Z,76.7
2022-10-13T00:10:26.037Z,76.8
2022-10-13T00:11:29.099Z,76.8
2022-10-13T00:12:32.364Z,76.8
2022-10-13T00:13:36.276Z,76.8
2022-10-13T00:14:39.146Z,76.9
2022-10-13T00:15:41.956Z,77
2022-10-13T00:16:44.672Z,77.2
2022-10-13T00:17:47.772Z,77.5
2022-10-13T00:18:50.584Z,77.5
2022-10-13T00:19:53.923Z,77.6
2022-10-13T00:20:56.637Z,77.6
2022-10-13T00:21:59.356Z,77.8
2022-10-13T00:23:02.064Z,77.8
2022-10-13T00:24:04.865Z,77.8
2022-10-13T00:25:08.092Z,77.8
2022-10-13T00:26:11.855Z,77.8
2022-10-13T00:27:14.750Z,77.9
2022-10-13T00:28:18.028Z,77.8
2022-10-13T00:29:21.303Z,77.8
2022-10-13T00:30:24.091Z,77.7
2022-10-13T00:31:27.168Z,77.8
2022-10-13T00:32:30.669Z,77.9
2022-10-13T00:33:34.114Z,77.9
2022-10-13T00:34:36.996Z,77.9
2022-10-13T00:35:39.890Z,77.9
2022-10-13T00:36:42.776Z,77.8
2022-10-13T00:37:45.484Z,77.7
2022-10-13T00:38:48.336Z,77.8
2022-10-13T00:39:51.777Z,77.7
2022-10-13T00:40:55.308Z,77.9
2022-10-13T00:41:59.260Z,77.8
2022-10-13T00:43:02.474Z,77.8
2022-10-13T00:44:05.199Z,77.8
2022-10-13T00:45:07.712Z,77.8
2022-10-13T00:46:11.092Z,77.9
2022-10-13T00:47:14.838Z,77.9
2022-10-13T00:48:18.001Z,77.8
2022-10-13T00:49:21.085Z,77.7
2022-10-13T00:50:24.049Z,77.6
2022-10-13T00:51:27.745Z,77.5
2022-10-13T00:52:30.695Z,77.4
2022-10-13T00:53:33.760Z,77.5
2022-10-13T00:54:37.195Z,77.5
2022-10-13T00:55:40.159Z,77.4
2022-10-13T00:56:43.422Z,77.4
2022-10-13T00:57:47.551Z,77.3
2022-10-13T00:58:50.348Z,77.3
2022-10-13T00:59:53.615Z,77.4
2022-10-13T01:00:56.611Z,77.4
2022-10-13T01:01:59.525Z,77.3
2022-10-13T01:03:01.843Z,77.2
2022-10-13T01:04:05.014Z,77.3
2022-10-13T01:05:07.335Z,77.4
2022-10-13T01:06:10.034Z,77.6
2022-10-13T01:07:12.850Z,77.7
2022-10-13T01:08:15.741Z,77.7
2022-10-13T01:09:18.800Z,77.8
2022-10-13T01:10:21.419Z,77.7
2022-10-13T01:11:23.575Z,77.7
2022-10-13T01:12:26.794Z,77.7
2022-10-13T01:13:30.661Z,77.7
2022-10-13T01:14:34.129Z,77.8
2022-10-13T01:15:37.105Z,77.9
2022-10-13T01:16:40.802Z,77.9
2022-10-13T01:17:43.992Z,77.9
2022-10-13T01:18:46.421Z,77.8
2022-10-13T01:19:49.288Z,77.7
2022-10-13T01:20:52.841Z,77.7
2022-10-13T01:21:56.224Z,77.6
2022-10-13T01:22:59.208Z,77.8
2022-10-13T01:24:02.283Z,77.7
2022-10-13T01:25:05.374Z,77.7
2022-10-13T01:26:08.369Z,77.6
2022-10-13T01:27:11.420Z,77.5
2022-10-13T01:28:15.168Z,77.5
2022-10-13T01:29:19.077Z,77.5
2022-10-13T01:30:21.663Z,77.5
2022-10-13T01:31:25.746Z,77.5
2022-10-13T01:32:29.196Z,77.5
2022-10-13T01:33:32.281Z,77.6
2022-10-13T01:34:35.800Z,77.6
2022-10-13T01:35:38.950Z,77.6
2022-10-13T01:36:42.447Z,77.6
2022-10-13T01:37:45.610Z,77.6
2022-10-13T01:38:48.205Z,77.5
2022-10-13T01:39:50.506Z,77.5
2022-10-13T01:40:53.571Z,77.5
2022-10-13T01:41:56.749Z,77.6
2022-10-13T01:42:59.259Z,77.6
2022-10-13T01:44:02.712Z,77.6
2022-10-13T01:45:06.873Z,77.6
2022-10-13T01:46:09.749Z,77.7
2022-10-13T01:47:12.276Z,77.6
2022-10-13T01:48:15.499Z,77.9
2022-10-13T01:49:18.683Z,77.9
2022-10-13T01:50:21.580Z,77.9
2022-10-13T01:51:25.006Z,77.9
2022-10-13T01:52:28.108Z,77.9
2022-10-13T01:53:30.985Z,77.8
2022-10-13T01:54:34.340Z,77.8
2022-10-13T01:55:37.857Z,77.8
2022-10-13T01:56:40.592Z,77.8
2022-10-13T01:57:43.660Z,77.8
2022-10-13T01:58:46.169Z,77.8
2022-10-13T01:59:49.409Z,77.8
2022-10-13T02:00:53.339Z,77.8
2022-10-13T02:01:56.693Z,77.8
2022-10-13T02:02:59.773Z,77.8
2022-10-13T02:04:03.398Z,77.9
2022-10-13T02:05:06.563Z,77.9
2022-10-13T02:06:09.735Z,78
2022-10-13T02:07:13.190Z,78
2022-10-13T02:08:16.536Z,77.9
2022-10-13T02:09:19.702Z,78
2022-10-13T02:10:22.763Z,78
2022-10-13T02:11:25.543Z,78.2
2022-10-13T02:12:28.940Z,78.2
2022-10-13T02:13:31.808Z,78.2
2022-10-13T02:14:35.302Z,78.2
2022-10-13T02:15:38.911Z,78.2
2022-10-13T02:16:43.326Z,78.1
2022-10-13T02:17:46.395Z,78.2
2022-10-13T02:18:49.532Z,78.1
2022-10-13T02:19:52.324Z,78.2
2022-10-13T02:20:56.328Z,78.1
2022-10-13T02:21:59.393Z,78.1
2022-10-13T02:23:02.224Z,78.1
2022-10-13T02:24:05.295Z,78.1
2022-10-13T02:25:08.373Z,78
2022-10-13T02:26:11.439Z,78.3
2022-10-13T02:27:13.666Z,78.3
2022-10-13T02:28:17.287Z,78.2
2022-10-13T02:29:20.432Z,78.2
2022-10-13T02:30:23.586Z,78.2
2022-10-13T02:31:27.309Z,78.2
2022-10-13T02:32:30.797Z,78.2
2022-10-13T02:33:34.507Z,78.3
2022-10-13T02:34:37.731Z,78.3
2022-10-13T02:35:40.359Z,78.3
2022-10-13T02:36:43.256Z,78.2
2022-10-13T02:37:46.504Z,78.2
2022-10-13T02:38:49.048Z,78.2
2022-10-13T02:39:52.037Z,78.2
2022-10-13T02:40:54.755Z,78.1
2022-10-13T02:41:57.919Z,78
2022-10-13T02:43:00.747Z,78
2022-10-13T02:44:03.196Z,77.9
2022-10-13T02:45:05.432Z,77.9
2022-10-13T02:46:08.514Z,77.9
2022-10-13T02:47:11.457Z,77.9
2022-10-13T02:48:15.250Z,77.9
2022-10-13T02:49:17.866Z,77.9
2022-10-13T02:50:21.277Z,78
2022-10-13T02:51:23.995Z,78.1
2022-10-13T02:52:26.736Z,78.1
2022-10-13T02:53:29.722Z,78.1
2022-10-13T02:54:32.795Z,78.2
2022-10-13T02:55:35.578Z,78.4
2022-10-13T02:56:38.661Z,78.4
2022-10-13T02:57:41.636Z,78.3
2022-10-13T02:58:43.963Z,78.3
2022-10-13T02:59:47.127Z,78.3
2022-10-13T03:00:49.623Z,78.3
2022-10-13T03:01:52.446Z,78.3
2022-10-13T03:02:56.016Z,78.4
2022-10-13T03:03:59.816Z,78.4
2022-10-13T03:05:02.411Z,78.5
2022-10-13T03:06:05.754Z,78.6
2022-10-13T03:07:08.555Z,78.6
2022-10-13T03:08:11.340Z,78.6
2022-10-13T03:09:14.519Z,78.6
2022-10-13T03:10:18.205Z,78.7
2022-10-13T03:11:20.721Z,78.7
2022-10-13T03:12:23.928Z,78.8
2022-10-13T03:13:27.068Z,78.8
2022-10-13T03:14:29.590Z,78.8
2022-10-13T03:15:32.739Z,78.8
2022-10-13T03:16:35.872Z,78.8
2022-10-13T03:17:39.038Z,78.8
2022-10-13T03:18:42.838Z,78.9
2022-10-13T03:19:46.416Z,79
2022-10-13T03:20:49.003Z,78.9
2022-10-13T03:21:51.800Z,78.9
2022-10-13T03:22:55.333Z,79
2022-10-13T03:23:57.847Z,79.1
2022-10-13T03:25:00.809Z,79
2022-10-13T03:26:03.522Z,79.3
2022-10-13T03:27:06.589Z,79.4
2022-10-13T03:28:09.748Z,79.4
2022-10-13T03:29:12.261Z,79.3
2022-10-13T03:30:15.763Z,79.4
2022-10-13T03:31:18.901Z,79.5
2022-10-13T03:32:23.688Z,79.6
2022-10-13T03:33:26.751Z,79.6
2022-10-13T03:34:29.979Z,79.8
2022-10-13T03:35:33.858Z,79.8
2022-10-13T03:36:36.996Z,79.8
2022-10-13T03:37:39.900Z,79.8
2022-10-13T03:38:43.280Z,79.9
2022-10-13T03:39:45.866Z,79.8
2022-10-13T03:40:48.589Z,80
2022-10-13T03:41:51.924Z,79.9
2022-10-13T03:42:55.173Z,80
2022-10-13T03:43:58.076Z,80.2
2022-10-13T03:45:00.664Z,80.2
2022-10-13T03:46:03.101Z,80.2
2022-10-13T03:47:06.160Z,80.2
2022-10-13T03:48:08.860Z,80.2
2022-10-13T03:49:12.000Z,80.3
2022-10-13T03:50:15.510Z,80.6
2022-10-13T03:51:19.533Z,80.7
2022-10-13T03:52:23.505Z,80.7
2022-10-13T03:53:26.088Z,80.6
2022-10-13T03:54:27.964Z,80.6
2022-10-13T03:55:30.278Z,80.7
2022-10-13T03:56:32.804Z,80.7
2022-10-13T03:57:35.594Z,80.7
2022-10-13T03:58:38.393Z,80.9
2022-10-13T03:59:41.337Z,80.9
2022-10-13T04:00:44.417Z,81
2022-10-13T04:01:47.777Z,81
2022-10-13T04:02:51.025Z,81.1
2022-10-13T04:03:54.110Z,81
2022-10-13T04:04:57.616Z,81.1
2022-10-13T04:06:00.800Z,81.2
2022-10-13T04:07:04.928Z,81.3
2022-10-13T04:08:07.998Z,81.4
2022-10-13T04:09:11.357Z,81.4
2022-10-13T04:10:14.503Z,81.4
2022-10-13T04:11:17.667Z,81.5
2022-10-13T04:12:22.997Z,81.5
2022-10-13T04:13:27.317Z,81.6
2022-10-13T04:14:30.184Z,81.5
2022-10-13T04:15:33.525Z,81.6
2022-10-13T04:16:35.973Z,81.5
2022-10-13T04:17:39.414Z,81.7
2022-10-13T04:18:46.107Z,81.6
2022-10-13T04:19:48.786Z,81.7
2022-10-13T04:20:51.500Z,81.7
2022-10-13T04:21:55.134Z,81.8
2022-10-13T04:22:59.372Z,81.8
2022-10-13T04:24:02.290Z,81.8
2022-10-13T04:25:05.085Z,81.9
2022-10-13T04:26:07.319Z,82.1
2022-10-13T04:27:10.440Z,82.2
2022-10-13T04:28:13.987Z,82.2
2022-10-13T04:29:17.649Z,82.2
2022-10-13T04:30:20.539Z,82.2
2022-10-13T04:31:23.897Z,82.2
2022-10-13T04:32:26.199Z,82.2
2022-10-13T04:33:29.322Z,82.2
2022-10-13T04:34:32.780Z,82.2
2022-10-13T04:35:36.511Z,82.3
2022-10-13T04:36:38.946Z,82.4
2022-10-13T04:37:46.665Z,82.5
2022-10-13T04:38:50.663Z,82.5
2022-10-13T04:39:54.391Z,82.4
2022-10-13T04:40:57.787Z,82.7
2022-10-13T04:42:00.590Z,82.8
2022-10-13T04:43:03.683Z,82.8
2022-10-13T04:44:06.859Z,82.9
2022-10-13T04:45:09.840Z,82.9
2022-10-13T04:46:12.928Z,82.8
2022-10-13T04:47:15.178Z,82.9
2022-10-13T04:48:17.406Z,83
2022-10-13T04:49:19.646Z,83.2
2022-10-13T04:50:23.398Z,83.2
2022-10-13T04:51:26.667Z,83.1
2022-10-13T04:52:29.774Z,83.2
2022-10-13T04:53:32.574Z,83.1
2022-10-13T04:54:36.616Z,83
2022-10-13T04:55:39.053Z,83
2022-10-13T04:56:41.861Z,82.9
2022-10-13T04:57:45.206Z,82.8
2022-10-13T04:58:48.641Z,82.8
2022-10-13T04:59:51.365Z,82.8
2022-10-13T05:00:54.489Z,82.8
2022-10-13T05:01:57.520Z,82.9
2022-10-13T05:03:00.688Z,83
2022-10-13T05:04:03.580Z,83.1
2022-10-13T05:05:06.478Z,83.1
2022-10-13T05:06:09.922Z,83.1
2022-10-13T05:07:19.965Z,83.2
2022-10-13T05:08:22.705Z,83.3
2022-10-13T05:09:25.572Z,83.4
2022-10-13T05:10:35.568Z,83.4
2022-10-13T05:11:38.429Z,83.6
2022-10-13T05:12:41.032Z,83.5
2022-10-13T05:13:43.256Z,83.5
2022-10-13T05:14:46.636Z,83.4
2022-10-13T05:15:50.085Z,83.6
2022-10-13T05:16:53.597Z,83.7
2022-10-13T05:17:56.941Z,83.6
2022-10-13T05:19:00.154Z,83.4
2022-10-13T05:20:02.400Z,83.4
2022-10-13T05:21:05.639Z,83.3
2022-10-13T05:22:08.536Z,83.3
2022-10-13T05:23:11.726Z,83.4
2022-10-13T05:24:14.609Z,83.4
2022-10-13T05:25:18.007Z,83.6
2022-10-13T05:26:22.239Z,83.7
2022-10-13T05:27:25.387Z,83.7
2022-10-13T05:28:28.813Z,83.7
2022-10-13T05:29:32.154Z,83.6
2022-10-13T05:30:35.261Z,83.7
2022-10-13T05:31:39.007Z,83.6
2022-10-13T05:32:41.540Z,83.7
2022-10-13T05:33:44.625Z,83.5
2022-10-13T05:34:47.774Z,83.4
2022-10-13T05:35:50.977Z,83.3
2022-10-13T05:36:54.131Z,83.2
2022-10-13T05:37:57.208Z,83.2
2022-10-13T05:39:00.022Z,83.3
2022-10-13T05:40:03.438Z,83.3
2022-10-13T05:41:06.877Z,83.4
2022-10-13T05:42:10.389Z,83.5
2022-10-13T05:43:13.176Z,83.5
2022-10-13T05:44:15.489Z,83.5
2022-10-13T05:45:18.599Z,83.4
2022-10-13T05:46:21.976Z,83.4
2022-10-13T05:47:24.788Z,83.5
2022-10-13T05:48:27.871Z,83.5
2022-10-13T05:49:30.827Z,83.5
2022-10-13T05:50:34.165Z,83.6
2022-10-13T05:51:36.889Z,83.6
2022-10-13T05:52:39.966Z,83.5
2022-10-13T05:53:58.131Z,83.4
2022-10-13T05:55:01.121Z,83.3
2022-10-13T05:56:04.186Z,83.3
2022-10-13T05:57:07.817Z,83.2
2022-10-13T05:58:11.331Z,83.2
2022-10-13T05:59:14.269Z,83.1
2022-10-13T06:00:17.809Z,83
2022-10-13T06:01:20.333Z,83.1
2022-10-13T06:02:24.241Z,83.1
2022-10-13T06:03:27.228Z,83.1
2022-10-13T06:04:30.385Z,83.1
2022-10-13T06:05:33.740Z,83.1
2022-10-13T06:06:36.266Z,83.2
2022-10-13T06:07:39.778Z,83.2
2022-10-13T06:08:43.197Z,83.3
2022-10-13T06:09:46.117Z,83.2
2022-10-13T06:10:49.556Z,83.2
2022-10-13T06:11:52.624Z,83.2
2022-10-13T06:12:56.133Z,83.2
2022-10-13T06:13:59.626Z,83.1
2022-10-13T06:15:01.938Z,83.1
2022-10-13T06:16:05.276Z,83.1
2022-10-13T06:17:08.330Z,83.1
2022-10-13T06:18:10.571Z,83
2022-10-13T06:19:13.994Z,82.9
2022-10-13T06:20:17.137Z,82.9
2022-10-13T06:21:20.545Z,82.8
2022-10-13T06:22:24.192Z,82.8
2022-10-13T06:23:26.896Z,82.8
2022-10-13T06:24:29.964Z,82.8
2022-10-13T06:25:33.107Z,82.9
2022-10-13T06:26:36.275Z,82.8
2022-10-13T06:27:39.936Z,82.9
2022-10-13T06:28:59.451Z,82.9
2022-10-13T06:30:03.762Z,82.9
2022-10-13T06:31:06.739Z,82.8
2022-10-13T06:32:10.156Z,82.8
2022-10-13T06:33:13.239Z,82.8
2022-10-13T06:34:16.380Z,82.7
2022-10-13T06:35:19.007Z,82.7
2022-10-13T06:36:21.724Z,82.6
2022-10-13T06:37:28.911Z,82.5
2022-10-13T06:38:32.057Z,82.5
2022-10-13T06:39:35.523Z,82.4
2022-10-13T06:40:38.792Z,82.3
2022-10-13T06:41:41.374Z,82.2
2022-10-13T06:42:43.984Z,82.2
2022-10-13T06:43:47.543Z,82.1
2022-10-13T06:44:51.032Z,82
2022-10-13T06:45:55.217Z,82
2022-10-13T06:46:57.625Z,82
2022-10-13T06:48:00.977Z,82
2022-10-13T06:49:04.104Z,82
2022-10-13T06:50:07.153Z,82
2022-10-13T06:51:10.154Z,81.9
2022-10-13T06:52:13.077Z,81.8
2022-10-13T06:53:16.262Z,81.9
2022-10-13T06:54:20.065Z,81.7
2022-10-13T06:55:23.215Z,81.7
2022-10-13T06:56:26.622Z,81.7
2022-10-13T06:57:29.422Z,81.7
2022-10-13T06:58:32.494Z,81.5
2022-10-13T06:59:35.391Z,81.4
2022-10-13T07:00:38.767Z,81.3
2022-10-13T07:01:43.091Z,81.2
2022-10-13T07:02:46.515Z,81
2022-10-13T07:03:49.687Z,81
2022-10-13T07:04:52.830Z,80.9
2022-10-13T07:05:56.294Z,80.8
2022-10-13T07:06:59.720Z,80.8
2022-10-13T07:08:02.501Z,80.7
2022-10-13T07:09:05.639Z,80.5
2022-10-13T07:10:08.712Z,80.4
2022-10-13T07:11:17.326Z,80.3
2022-10-13T07:12:21.904Z,80.4
2022-10-13T07:13:25.610Z,80.4
2022-10-13T07:14:29.206Z,80.5
2022-10-13T07:15:32.357Z,80.4
2022-10-13T07:16:35.411Z,80.4
2022-10-13T07:17:39.186Z,80.1
2022-10-13T07:18:41.974Z,79.9
2022-10-13T07:19:44.775Z,79.9
2022-10-13T07:20:47.639Z,79.7
2022-10-13T07:21:51.098Z,79.3
2022-10-13T07:22:54.098Z,79.3
2022-10-13T07:23:57.237Z,79.2
2022-10-13T07:25:00.975Z,79.2
2022-10-13T07:26:03.561Z,79.1
2022-10-13T07:27:08.795Z,79
2022-10-13T07:28:12.028Z,79
2022-10-13T07:29:14.286Z,79
2022-10-13T07:30:17.365Z,78.9
2022-10-13T07:31:20.855Z,79
2022-10-13T07:32:24.015Z,78.9
2022-10-13T07:33:28.098Z,78.7
2022-10-13T07:34:30.890Z,78.6
2022-10-13T07:35:34.759Z,78.6
2022-10-13T07:36:37.415Z,78.7
2022-10-13T07:37:40.137Z,78.7
2022-10-13T07:38:43.076Z,78.8
2022-10-13T07:39:46.440Z,78.9
2022-10-13T07:40:49.512Z,78.8
2022-10-13T07:41:52.628Z,78.7
2022-10-13T07:42:56.008Z,78.7
2022-10-13T07:43:59.255Z,78.6
2022-10-13T07:45:02.436Z,78.6
2022-10-13T07:46:05.593Z,78.6
2022-10-13T07:47:08.613Z,78.7
2022-10-13T07:48:12.128Z,78.8
2022-10-13T07:49:17.332Z,78.8
2022-10-13T07:50:20.741Z,78.8
2022-10-13T07:51:24.068Z,78.7
2022-10-13T07:52:27.408Z,78.7
2022-10-13T07:53:30.582Z,78.7
2022-10-13T07:54:33.388Z,78.8
2022-10-13T07:55:36.919Z,78.8
2022-10-13T07:56:39.517Z,78.8
2022-10-13T07:57:42.691Z,78.8
2022-10-13T07:58:45.485Z,78.8
2022-10-13T07:59:49.475Z,78.6
2022-10-13T08:00:52.156Z,78.4
2022-10-13T08:01:55.230Z,78.5
2022-10-13T08:02:58.734Z,78.6
2022-10-13T08:04:02.954Z,78.6
2022-10-13T08:05:06.768Z,78.5
2022-10-13T08:06:09.719Z,78.6
2022-10-13T08:07:12.707Z,78.6
2022-10-13T08:08:16.529Z,78.4
2022-10-13T08:09:19.238Z,78.5
2022-10-13T08:10:22.409Z,78.5
2022-10-13T08:11:25.300Z,78.4
2022-10-13T08:12:28.746Z,78.2
2022-10-13T08:13:31.254Z,78.1
2022-10-13T08:14:34.903Z,78.1
2022-10-13T08:15:38.479Z,78
2022-10-13T08:16:41.079Z,78
2022-10-13T08:17:44.248Z,77.9
2022-10-13T08:18:47.090Z,78.1
2022-10-13T08:19:50.639Z,78.2
2022-10-13T08:21:59.799Z,78
2022-10-13T08:23:03.869Z,78.1
2022-10-13T08:24:07.036Z,77.8
2022-10-13T08:25:10.066Z,77.7
2022-10-13T08:26:12.936Z,77.6
2022-10-13T08:27:16.030Z,77.3
2022-10-13T08:28:19.807Z,77.2
2022-10-13T08:29:25.740Z,77.2
2022-10-13T08:30:29.254Z,77.2
2022-10-13T08:31:33.893Z,77
2022-10-13T08:32:37.293Z,76.7
2022-10-13T08:33:39.181Z,76.7
2022-10-13T08:34:41.784Z,76.8
2022-10-13T08:35:45.707Z,76.8
2022-10-13T08:36:49.880Z,76.8
2022-10-13T08:37:53.350Z,76.7
2022-10-13T08:38:57.124Z,76.5
2022-10-13T08:40:00.548Z,76.4
2022-10-13T08:41:03.607Z,76.3
2022-10-13T08:42:06.375Z,76.1
2022-10-13T08:43:09.246Z,76
2022-10-13T08:45:42.458Z,75.8
2022-10-13T08:46:46.408Z,75.7
2022-10-13T08:47:49.490Z,75.7
2022-10-13T08:48:52.386Z,75.6
2022-10-13T08:50:02.146Z,75.7
2022-10-13T08:51:05.274Z,75.8
2022-10-13T08:52:09.343Z,75.8
2022-10-13T08:53:11.660Z,75.8
2022-10-13T08:54:13.903Z,75.9
2022-10-13T08:55:17.519Z,75.8
2022-10-13T08:56:20.979Z,75.7
2022-10-13T08:57:24.774Z,75.8
2022-10-13T08:58:27.504Z,75.8
2022-10-13T08:59:30.380Z,75.8
2022-10-13T09:00:33.442Z,75.8
2022-10-13T09:01:37.175Z,75.6
2022-10-13T09:02:40.733Z,75.6
2022-10-13T09:03:43.553Z,75.6
2022-10-13T09:04:47.003Z,75.6
2022-10-13T09:05:50.415Z,75.6
2022-10-13T09:06:53.649Z,75.4
2022-10-13T09:07:57.946Z,75.2
2022-10-13T09:09:01.599Z,75.1
2022-10-13T09:10:04.848Z,75.1
2022-10-13T09:11:08.307Z,75.2
2022-10-13T09:12:10.911Z,75.3
2022-10-13T09:13:14.063Z,75.2
2022-10-13T09:14:16.591Z,75.2
2022-10-13T09:15:20.248Z,75.1
2022-10-13T09:16:23.777Z,75.3
2022-10-13T09:17:27.217Z,75.3
2022-10-13T09:18:30.648Z,75.3
2022-10-13T09:19:33.637Z,75.4
2022-10-13T09:20:37.031Z,75.3
2022-10-13T09:21:40.512Z,75.3
2022-10-13T09:22:43.328Z,76.1
2022-10-13T09:23:47.097Z,77.5
2022-10-13T09:24:50.228Z,76.3
2022-10-13T09:25:53.380Z,75.6
2022-10-13T09:26:56.168Z,75.6
2022-10-13T09:27:58.779Z,74.8
2022-10-13T09:29:01.811Z,74.4
2022-10-13T09:30:04.703Z,74.9
2022-10-13T09:31:14.962Z,76.1
2022-10-13T09:32:20.258Z,76.2
2022-10-13T09:33:24.097Z,74.8
2022-10-13T09:34:27.237Z,73.7
2022-10-13T09:35:30.932Z,72.6
2022-10-13T09:36:34.589Z,72.1
2022-10-13T09:37:37.765Z,72.5
2022-10-13T09:38:41.173Z,72.3
2022-10-13T09:39:45.533Z,71.9
2022-10-13T09:40:49.274Z,73
2022-10-13T09:41:52.640Z,71
2022-10-13T09:42:56.363Z,71.3
2022-10-13T09:43:59.741Z,70.6
2022-10-13T09:45:01.896Z,71.3
2022-10-13T09:46:05.910Z,70.7
2022-10-13T09:47:09.172Z,69.9
2022-10-13T09:48:12.415Z,70
2022-10-13T09:49:15.762Z,70.4
2022-10-13T09:50:18.871Z,70.5
2022-10-13T09:51:21.597Z,69.6
2022-10-13T09:52:25.697Z,69.9
2022-10-13T09:53:28.580Z,69.9
2022-10-13T09:54:32.097Z,69.5
2022-10-13T09:55:35.375Z,70.6
2022-10-13T09:56:38.203Z,70.1
2022-10-13T09:57:41.174Z,70.9
2022-10-13T09:59:48.995Z,69
2022-10-13T10:00:52.166Z,68.2
2022-10-13T10:01:55.604Z,67.8
2022-10-13T10:02:58.880Z,67.2
2022-10-13T10:04:02.062Z,67.6
2022-10-13T10:05:05.655Z,67.6
2022-10-13T10:07:11.274Z,67.4
2022-10-13T10:08:13.226Z,67.8
2022-10-13T10:09:16.112Z,67.4
2022-10-13T10:10:19.426Z,67.6
2022-10-13T10:11:23.534Z,67.6
2022-10-13T10:12:29.121Z,68
2022-10-13T10:13:33.096Z,67.8
2022-10-13T10:14:36.153Z,67.7
2022-10-13T10:15:38.936Z,67.8
2022-10-13T10:16:41.524Z,68.4
2022-10-13T10:17:43.502Z,68.5
2022-10-13T10:18:46.620Z,68.2
2022-10-13T10:19:50.247Z,68
2022-10-13T10:20:53.741Z,67.9
2022-10-13T10:21:56.310Z,68
2022-10-13T10:22:58.836Z,68.2
2022-10-13T10:24:02.104Z,68.4
2022-10-13T10:25:05.295Z,68.6
2022-10-13T10:26:08.069Z,68.4
2022-10-13T10:27:12.338Z,68.6
2022-10-13T10:28:15.955Z,68.7
2022-10-13T10:29:19.574Z,68.9
2022-10-13T10:30:22.177Z,69
2022-10-13T10:31:25.041Z,69
2022-10-13T10:32:28.777Z,69.1
2022-10-13T10:33:31.595Z,69.3
2022-10-13T10:34:34.675Z,69.6
2022-10-13T10:35:37.227Z,69.4
2022-10-13T10:36:40.685Z,69.3
2022-10-13T10:37:44.136Z,69.5
2022-10-13T10:38:47.507Z,69.7
2022-10-13T10:39:50.217Z,69
2022-10-13T10:40:53.593Z,69.1
2022-10-13T10:41:57.761Z,69.6
2022-10-13T10:43:01.599Z,68.4
2022-10-13T10:44:04.593Z,68.4
2022-10-13T10:45:08.044Z,68.4
2022-10-13T10:46:11.484Z,67.7
2022-10-13T10:47:13.995Z,67.6
2022-10-13T10:48:19.714Z,67.2
2022-10-13T10:49:23.104Z,67
2022-10-13T10:50:26.553Z,67.1
2022-10-13T10:51:29.944Z,67.3
2022-10-13T10:52:33.206Z,67.4
2022-10-13T10:53:36.488Z,66.4
2022-10-13T10:54:39.479Z,65.8
2022-10-13T10:55:49.118Z,65.9
2022-10-13T10:56:52.511Z,66.2
2022-10-13T10:57:55.675Z,65.7
2022-10-13T10:58:59.470Z,65.7
2022-10-13T11:00:03.194Z,66
2022-10-13T11:01:06.345Z,66
2022-10-13T11:02:09.070Z,65.9
2022-10-13T11:03:12.167Z,65.8
2022-10-13T11:04:15.278Z,66
2022-10-13T11:05:18.737Z,67.1
2022-10-13T11:06:21.256Z,68.8
2022-10-13T11:07:24.344Z,66.2
2022-10-13T11:08:27.411Z,67.6
2022-10-13T11:09:30.496Z,65.1
2022-10-13T11:10:33.382Z,65.1
2022-10-13T11:11:39.371Z,65.3
2022-10-13T11:12:42.720Z,65
2022-10-13T11:13:45.780Z,65.3
2022-10-13T11:14:50.025Z,65.6
2022-10-13T11:15:52.275Z,65
2022-10-13T11:16:55.329Z,64.7
2022-10-13T11:17:58.046Z,64.1
2022-10-13T11:19:01.389Z,64.6
2022-10-13T11:20:03.842Z,64.8
2022-10-13T11:21:07.291Z,64.5
2022-10-13T11:22:10.638Z,63.9
2022-10-13T11:23:12.808Z,64.5
2022-10-13T11:24:15.747Z,64.4
2022-10-13T11:25:18.896Z,64.9
2022-10-13T11:26:22.043Z,65.7
2022-10-13T11:27:24.836Z,65.5
2022-10-13T11:28:28.753Z,65
2022-10-13T11:29:32.058Z,65
2022-10-13T11:30:35.582Z,65.6
2022-10-13T11:31:38.951Z,65.7
2022-10-13T11:32:41.842Z,65.2
2022-10-13T11:33:44.722Z,65
2022-10-13T11:34:47.519Z,64.9
2022-10-13T11:35:50.046Z,65.4
2022-10-13T11:36:53.384Z,65.2
2022-10-13T11:38:17.714Z,63.9
2022-10-13T11:39:22.155Z,63.3
2022-10-13T11:40:25.111Z,63.2
2022-10-13T11:41:27.645Z,63.3
2022-10-13T11:42:31.264Z,63.3
2022-10-13T11:43:34.800Z,63.6
2022-10-13T11:44:37.762Z,63.3
2022-10-13T11:45:41.890Z,63.6
2022-10-13T11:46:45.663Z,63.4
2022-10-13T11:47:48.538Z,63.7
2022-10-13T11:48:51.817Z,64
2022-10-13T11:49:54.633Z,65.6
2022-10-13T11:50:57.447Z,64.6
2022-10-13T11:52:00.602Z,63.7
2022-10-13T11:53:03.670Z,62.8
2022-10-13T11:54:07.024Z,62.8
2022-10-13T11:55:10.271Z,62.7
2022-10-13T11:56:14.174Z,62.3
2022-10-13T11:57:17.250Z,62.3
2022-10-13T11:58:19.879Z,62
2022-10-13T11:59:23.271Z,62.2
2022-10-13T12:00:26.395Z,61.6
2022-10-13T12:01:30.184Z,61.7
2022-10-13T12:02:33.442Z,61.7
2022-10-13T12:03:36.926Z,61.6
2022-10-13T12:04:47.526Z,61.8
2022-10-13T12:05:51.455Z,62.1
2022-10-13T12:06:54.717Z,62.1
2022-10-13T12:07:57.235Z,62.3
2022-10-13T12:09:00.059Z,62.3
2022-10-13T12:10:03.140Z,62.7
2022-10-13T12:11:06.639Z,63.2
2022-10-13T12:12:08.819Z,62.1
2022-10-13T12:13:11.366Z,62
2022-10-13T12:14:14.632Z,62.1
2022-10-13T12:15:17.817Z,62.4
2022-10-13T12:16:21.401Z,62.2
2022-10-13T12:17:27.481Z,62.6
2022-10-13T12:18:31.338Z,61.9
2022-10-13T12:19:33.867Z,62
2022-10-13T12:20:36.944Z,62.7
2022-10-13T12:21:39.664Z,62.5
2022-10-13T12:22:42.854Z,62.5
2022-10-13T12:23:46.262Z,62.3
2022-10-13T12:24:49.355Z,62.8
2022-10-13T12:25:52.811Z,63
2022-10-13T12:26:55.515Z,62.8
2022-10-13T12:27:59.247Z,62.1
2022-10-13T12:29:02.491Z,62.3
2022-10-13T12:30:06.008Z,62.4
2022-10-13T12:31:09.463Z,62.1
2022-10-13T12:32:12.436Z,62.1
2022-10-13T12:33:16.204Z,62.1
2022-10-13T12:34:19.462Z,62.1
2022-10-13T12:35:22.901Z,62.1
2022-10-13T12:36:25.632Z,62
2022-10-13T12:37:28.790Z,62.1
2022-10-13T12:38:31.865Z,62.3
2022-10-13T12:39:34.730Z,62.5
2022-10-13T12:40:37.517Z,62.3
2022-10-13T12:41:41.312Z,62.5
2022-10-13T12:42:44.481Z,62.7
2022-10-13T12:43:47.350Z,62.9
2022-10-13T12:44:50.339Z,62.9
2022-10-13T12:45:52.961Z,62.6
2022-10-13T12:46:56.463Z,62.7
2022-10-13T12:47:59.604Z,62.8
2022-10-13T12:49:03.600Z,62.9
2022-10-13T12:50:07.047Z,62.7
2022-10-13T12:51:10.416Z,62.4
2022-10-13T12:52:13.503Z,62.4
2022-10-13T12:53:17.016Z,62.7
2022-10-13T12:54:20.514Z,62.8
2022-10-13T12:55:23.585Z,62.7
2022-10-13T12:56:26.939Z,62.5
2022-10-13T12:57:30.005Z,62.2
2022-10-13T12:58:33.163Z,62
2022-10-13T12:59:36.126Z,61.9
2022-10-13T13:00:39.530Z,62
2022-10-13T13:01:43.152Z,62.3
2022-10-13T13:02:46.068Z,62.2
2022-10-13T13:03:49.562Z,62.2
2022-10-13T13:04:53.788Z,62.1
2022-10-13T13:06:01.978Z,62.3
2022-10-13T13:07:05.332Z,62.9
2022-10-13T13:08:08.429Z,63.2
2022-10-13T13:09:11.849Z,62.7
2022-10-13T13:10:15.022Z,62.6
2022-10-13T13:11:18.475Z,62.2
2022-10-13T13:12:23.363Z,62.6
2022-10-13T13:13:26.785Z,62.6
2022-10-13T13:14:30.247Z,62.7
2022-10-13T13:15:33.585Z,62.9
2022-10-13T13:16:36.670Z,62.9
2022-10-13T13:18:00.270Z,62.9
2022-10-13T13:19:03.782Z,62.8
2022-10-13T13:20:07.342Z,62.8
2022-10-13T13:21:11.073Z,62.8
2022-10-13T13:22:14.159Z,63.8
2022-10-13T13:23:16.391Z,63.3
2022-10-13T13:24:41.152Z,63.2
2022-10-13T13:25:44.417Z,63.6
2022-10-13T13:26:47.885Z,63.6
2022-10-13T13:27:50.689Z,62.8
2022-10-13T13:28:54.321Z,63
2022-10-13T13:29:57.855Z,62.8
2022-10-13T13:31:01.270Z,63.4
2022-10-13T13:32:04.189Z,63
2022-10-13T13:33:07.821Z,63.2
2022-10-13T13:34:11.015Z,62.5
2022-10-13T13:35:14.245Z,62.7
2022-10-13T13:36:17.493Z,62.6
2022-10-13T13:37:21.515Z,62.4
2022-10-13T13:38:25.686Z,62.5
2022-10-13T13:39:28.560Z,63.1
2022-10-13T13:40:32.043Z,63.2
2022-10-13T13:41:35.275Z,62.8
2022-10-13T13:42:38.727Z,62.8
2022-10-13T13:43:42.247Z,62.7
2022-10-13T13:44:45.151Z,62.6
2022-10-13T13:45:48.876Z,62.7
2022-10-13T13:46:51.744Z,63.2
2022-10-13T13:48:01.734Z,62.9
2022-10-13T13:49:04.732Z,63
2022-10-13T13:50:08.904Z,63.3
2022-10-13T13:51:12.743Z,63.2
2022-10-13T13:52:15.911Z,63.1
2022-10-13T13:53:18.443Z,63
2022-10-13T13:54:21.783Z,63.2
2022-10-13T13:55:24.896Z,63.2
2022-10-13T13:56:27.710Z,63.1
2022-10-13T13:57:31.056Z,63
2022-10-13T13:58:34.716Z,63.1
2022-10-13T13:59:37.862Z,62.9
2022-10-13T14:00:41.271Z,62.8
2022-10-13T14:01:44.717Z,62.6
2022-10-13T14:02:48.101Z,63.4
2022-10-13T14:03:50.343Z,63.5
2022-10-13T14:04:53.521Z,63.7
2022-10-13T14:05:57.241Z,64
2022-10-13T14:07:01.023Z,64.4
2022-10-13T14:08:04.210Z,65.2
2022-10-13T14:09:07.474Z,64.6
2022-10-13T14:10:09.973Z,63.5
2022-10-13T14:11:13.407Z,63.7
2022-10-13T14:12:16.276Z,64
2022-10-13T14:13:19.532Z,63.8
2022-10-13T14:14:22.722Z,64